^^
Station Historical Data
Daily Summary for March 3, 2017 Units:  Both    English   Metric
« Previous Day
Next Day »
Daily Weekly Monthly Yearly Custom
  High: Low: Average:
Temperature: 80.8 °F /  27.1 °C 59.0 °F /  15 °C 65.1 °F /  18.4 °C
Dew Point: 63.7 °F /  17.6 °C 57.7 °F /  14.3 °C 59.7 °F /  15.4 °C
Humidity: 97% 47% 85%
Wind Speed: 14.1mph /  22.7km/h - 1.2mph /  1.9km/h
Wind Gust: 20.0mph /  32.2km/h - -
Wind- - SSE
Pressure: 29.81 in /  1009.4 hPa 29.64 in /  1003.6 hPa -
Precipitation: 1.69 in /  42.93 mm    
Historical Graphs
 
 
Tabular Data for March 3, 2017
Time Temperature Dew Point Pressure Wind Wind Speed Wind Gust Humidity Rainfall Rate (Hourly) solar Conditions
00:08 61.9 °F /  16.6 °C 60.4 °F /  15.8 °C 29.81in /  1009.4hPa Calm   4.0mph /  6.4km/h 95% 0.39in /  9.91mm 0.0 W/m2
00:14 61.5 °F /  16.4 °C 59.7 °F /  15.4 °C 29.80in /  1009hPa Calm     94% 0.60in /  15.24mm 0.0 W/m2
00:20 61.3 °F /  16.3 °C 59.9 °F /  15.5 °C 29.81in /  1009.4hPa Calm     95% 0.62in /  15.75mm 0.0 W/m2
00:26 61.2 °F /  16.2 °C 59.7 °F /  15.4 °C 29.81in /  1009.4hPa Calm   3.0mph /  4.8km/h 95% 0.65in /  16.51mm 0.0 W/m2
00:32 61.2 °F /  16.2 °C 59.7 °F /  15.4 °C 29.80in /  1009hPa Calm   2.0mph /  3.2km/h 95% 0.65in /  16.51mm 0.0 W/m2
00:38 61.3 °F /  16.3 °C 59.9 °F /  15.5 °C 29.80in /  1009hPa NNW 0.9mph /  1.4km/h 4.0mph /  6.4km/h 95% 0.66in /  16.76mm 0.0 W/m2
00:44 61.0 °F /  16.1 °C 59.5 °F /  15.3 °C 29.80in /  1009hPa Calm     95% 0.67in /  17.02mm 0.0 W/m2
00:50 60.8 °F /  16 °C 59.4 °F /  15.2 °C 29.80in /  1009hPa Calm   1.0mph /  1.6km/h 95% 0.69in /  17.53mm 0.0 W/m2
00:56 60.4 °F /  15.8 °C 58.6 °F /  14.8 °C 29.80in /  1009hPa Calm     94% 0.66in /  16.76mm 0.0 W/m2
01:02 60.3 °F /  15.7 °C 58.8 °F /  14.9 °C 29.79in /  1008.7hPa Calm     95% 0.53in /  13.46mm 0.0 W/m2
01:08 60.1 °F /  15.6 °C 58.3 °F /  14.6 °C 29.80in /  1009hPa Calm     94% 0.32in /  8.13mm 0.0 W/m2
01:14 59.7 °F /  15.4 °C 57.9 °F /  14.4 °C 29.80in /  1009hPa Calm     94% 0.17in /  4.32mm 0.0 W/m2
01:20 59.7 °F /  15.4 °C 58.3 °F /  14.6 °C 29.79in /  1008.7hPa Calm     95% 0.15in /  3.81mm 0.0 W/m2
01:26 59.5 °F /  15.3 °C 58.1 °F /  14.5 °C 29.79in /  1008.7hPa Calm     95% 0.15in /  3.81mm 0.0 W/m2
01:32 59.4 °F /  15.2 °C 57.9 °F /  14.4 °C 29.79in /  1008.7hPa Calm     95% 0.16in /  4.06mm 0.0 W/m2
01:38 59.2 °F /  15.1 °C 57.7 °F /  14.3 °C 29.79in /  1008.7hPa Calm     95% 0.15in /  3.81mm 0.0 W/m2
01:44 59.4 °F /  15.2 °C 57.9 °F /  14.4 °C 29.79in /  1008.7hPa Calm     95% 0.16in /  4.06mm 0.0 W/m2
01:50 59.4 °F /  15.2 °C 57.9 °F /  14.4 °C 29.79in /  1008.7hPa Calm     95% 0.15in /  3.81mm 0.0 W/m2
01:56 59.5 °F /  15.3 °C 58.5 °F /  14.7 °C 29.79in /  1008.7hPa Calm     96% 0.13in /  3.3mm 0.0 W/m2
02:02 59.5 °F /  15.3 °C 58.5 °F /  14.7 °C 29.79in /  1008.7hPa Calm   1.0mph /  1.6km/h 96% 0.13in /  3.3mm 0.0 W/m2
02:08 59.7 °F /  15.4 °C 58.6 °F /  14.8 °C 29.79in /  1008.7hPa Calm     96% 0.12in /  3.05mm 0.0 W/m2
02:14 59.7 °F /  15.4 °C 58.6 °F /  14.8 °C 29.79in /  1008.7hPa Calm   1.0mph /  1.6km/h 96% 0.12in /  3.05mm 0.0 W/m2
02:20 60.1 °F /  15.6 °C 59.0 °F /  15 °C 29.80in /  1009hPa Calm     96% 0.11in /  2.79mm 0.0 W/m2
02:26 60.1 °F /  15.6 °C 59.0 °F /  15 °C 29.80in /  1009hPa Calm   1.0mph /  1.6km/h 96% 0.12in /  3.05mm 0.0 W/m2
02:32 60.3 °F /  15.7 °C 59.2 °F /  15.1 °C 29.80in /  1009hPa Calm     96% 0.12in /  3.05mm 0.0 W/m2
02:38 60.3 °F /  15.7 °C 59.2 °F /  15.1 °C 29.80in /  1009hPa Calm     96% 0.11in /  2.79mm 0.0 W/m2
02:44 60.4 °F /  15.8 °C 59.4 °F /  15.2 °C 29.80in /  1009hPa Calm     96% 0.11in /  2.79mm 0.0 W/m2
02:50 60.4 °F /  15.8 °C 59.4 °F /  15.2 °C 29.80in /  1009hPa Calm     96% 0.11in /  2.79mm 0.0 W/m2
02:56 60.4 °F /  15.8 °C 59.4 °F /  15.2 °C 29.80in /  1009hPa Calm     96% 0.11in /  2.79mm 0.0 W/m2
03:02 60.4 °F /  15.8 °C 59.4 °F /  15.2 °C 29.80in /  1009hPa Calm     96% 0.11in /  2.79mm 0.0 W/m2
03:08 60.6 °F /  15.9 °C 59.5 °F /  15.3 °C 29.80in /  1009hPa Calm     96% 0.12in /  3.05mm 0.0 W/m2
03:14 60.6 °F /  15.9 °C 59.5 °F /  15.3 °C 29.79in /  1008.7hPa Calm     96% 0.10in /  2.54mm 0.0 W/m2
03:20 60.6 °F /  15.9 °C 59.5 °F /  15.3 °C 29.79in /  1008.7hPa Calm   3.0mph /  4.8km/h 96% 0.09in /  2.29mm 0.0 W/m2
03:26 60.4 °F /  15.8 °C 59.4 °F /  15.2 °C 29.79in /  1008.7hPa Calm     96% 0.09in /  2.29mm 0.0 W/m2
03:32 60.4 °F /  15.8 °C 59.4 °F /  15.2 °C 29.79in /  1008.7hPa Calm   1.0mph /  1.6km/h 96% 0.09in /  2.29mm 0.0 W/m2
03:38 60.4 °F /  15.8 °C 59.4 °F /  15.2 °C 29.79in /  1008.7hPa Calm     96% 0.09in /  2.29mm 0.0 W/m2
03:44 60.3 °F /  15.7 °C 59.2 °F /  15.1 °C 29.79in /  1008.7hPa Calm     96% 0.09in /  2.29mm 0.0 W/m2
03:50 60.3 °F /  15.7 °C 59.2 °F /  15.1 °C 29.79in /  1008.7hPa Calm     96% 0.08in /  2.03mm 0.0 W/m2
03:56 60.1 °F /  15.6 °C 58.6 °F /  14.8 °C 29.79in /  1008.7hPa Calm     95% 0.08in /  2.03mm 0.0 W/m2
04:02 60.1 °F /  15.6 °C 59.0 °F /  15 °C 29.79in /  1008.7hPa Calm     96% 0.08in /  2.03mm 0.0 W/m2
04:08 60.1 °F /  15.6 °C 59.0 °F /  15 °C 29.79in /  1008.7hPa Calm     96% 0.08in /  2.03mm 0.0 W/m2
04:14 59.9 °F /  15.5 °C 58.8 °F /  14.9 °C 29.79in /  1008.7hPa Calm     96% 0.09in /  2.29mm 0.0 W/m2
04:20 59.9 °F /  15.5 °C 58.8 °F /  14.9 °C 29.80in /  1009hPa Calm     96% 0.09in /  2.29mm 0.0 W/m2
04:26 59.9 °F /  15.5 °C 58.8 °F /  14.9 °C 29.79in /  1008.7hPa Calm     96% 0.07in /  1.78mm 0.0 W/m2
04:32 59.9 °F /  15.5 °C 58.8 °F /  14.9 °C 29.80in /  1009hPa Calm     96% 0.07in /  1.78mm 0.0 W/m2
04:38 59.9 °F /  15.5 °C 58.8 °F /  14.9 °C 29.79in /  1008.7hPa Calm   1.0mph /  1.6km/h 96% 0.07in /  1.78mm 0.0 W/m2
04:44 59.7 °F /  15.4 °C 58.6 °F /  14.8 °C 29.79in /  1008.7hPa Calm   2.0mph /  3.2km/h 96% 0.06in /  1.52mm 0.0 W/m2
04:50 59.7 °F /  15.4 °C 58.6 °F /  14.8 °C 29.79in /  1008.7hPa Calm   4.0mph /  6.4km/h 96% 0.06in /  1.52mm 0.0 W/m2
04:56 59.7 °F /  15.4 °C 58.6 °F /  14.8 °C 29.79in /  1008.7hPa SE 2.0mph /  3.2km/h 4.0mph /  6.4km/h 96% 0.06in /  1.52mm 0.0 W/m2
05:02 59.5 °F /  15.3 °C 58.5 °F /  14.7 °C 29.79in /  1008.7hPa SE 2.0mph /  3.2km/h 4.0mph /  6.4km/h 96% 0.05in /  1.27mm 0.0 W/m2
05:08 59.5 °F /  15.3 °C 58.5 °F /  14.7 °C 29.78in /  1008.4hPa Calm   4.0mph /  6.4km/h 96% 0.04in /  1.02mm 0.0 W/m2
05:14 59.5 °F /  15.3 °C 58.5 °F /  14.7 °C 29.78in /  1008.4hPa SE 2.0mph /  3.2km/h 4.0mph /  6.4km/h 96% 0.04in /  1.02mm 0.0 W/m2
05:20 59.5 °F /  15.3 °C 58.5 °F /  14.7 °C 29.78in /  1008.4hPa SE 2.9mph /  4.7km/h 5.0mph /  8km/h 96% 0.03in /  0.76mm 0.0 W/m2
05:26 59.4 °F /  15.2 °C 57.9 °F /  14.4 °C 29.78in /  1008.4hPa Calm   3.0mph /  4.8km/h 95% 0.02in /  0.51mm 0.0 W/m2
05:32 59.4 °F /  15.2 °C 58.3 °F /  14.6 °C 29.77in /  1008hPa Calm   1.0mph /  1.6km/h 96% 0.02in /  0.51mm 0.0 W/m2
05:38 59.4 °F /  15.2 °C 58.3 °F /  14.6 °C 29.77in /  1008hPa Calm     96% 0.02in /  0.51mm 0.0 W/m2
05:44 59.4 °F /  15.2 °C 58.3 °F /  14.6 °C 29.77in /  1008hPa Calm     96% 0.01in /  0.25mm 0.0 W/m2
05:50 59.4 °F /  15.2 °C 58.3 °F /  14.6 °C 29.77in /  1008hPa Calm     96% 0.01in /  0.25mm 0.0 W/m2
05:56 59.4 °F /  15.2 °C 58.3 °F /  14.6 °C 29.77in /  1008hPa Calm     96% 0.02in /  0.51mm 0.0 W/m2
06:02 59.4 °F /  15.2 °C 58.3 °F /  14.6 °C 29.77in /  1008hPa Calm     96% 0.02in /  0.51mm 0.0 W/m2
06:08 59.4 °F /  15.2 °C 58.3 °F /  14.6 °C 29.77in /  1008hPa Calm     96% 0.02in /  0.51mm 0.0 W/m2
06:14 59.5 °F /  15.3 °C 58.5 °F /  14.7 °C 29.77in /  1008hPa Calm     96% 0.01in /  0.25mm 0.0 W/m2
06:20 59.5 °F /  15.3 °C 58.5 °F /  14.7 °C 29.77in /  1008hPa Calm     96% 0.01in /  0.25mm 0.0 W/m2
06:26 59.5 °F /  15.3 °C 58.5 °F /  14.7 °C 29.77in /  1008hPa Calm     96% 0.01in /  0.25mm 0.0 W/m2
06:32 59.7 °F /  15.4 °C 58.6 °F /  14.8 °C 29.77in /  1008hPa Calm     96% 0.01in /  0.25mm 0.0 W/m2
06:38 59.7 °F /  15.4 °C 58.6 °F /  14.8 °C 29.77in /  1008hPa Calm     96% 0.02in /  0.51mm 0.0 W/m2
06:44 59.7 °F /  15.4 °C 58.6 °F /  14.8 °C 29.77in /  1008hPa Calm     96% 0.02in /  0.51mm 0.0 W/m2
06:50 59.9 °F /  15.5 °C 58.8 °F /  14.9 °C 29.77in /  1008hPa Calm     96% 0.02in /  0.51mm 0.0 W/m2
06:56 59.9 °F /  15.5 °C 58.8 °F /  14.9 °C 29.77in /  1008hPa Calm     96% 0.02in /  0.51mm 0.0 W/m2
07:02 59.7 °F /  15.4 °C 58.6 °F /  14.8 °C 29.77in /  1008hPa SE 0.9mph /  1.4km/h 3.0mph /  4.8km/h 96% 0.03in /  0.76mm 0.0 W/m2
07:08 59.5 °F /  15.3 °C 58.5 °F /  14.7 °C 29.77in /  1008hPa SE 0.9mph /  1.4km/h 6.0mph /  9.7km/h 96% 0.03in /  0.76mm 0.0 W/m2
07:14 59.4 °F /  15.2 °C 57.9 °F /  14.4 °C 29.76in /  1007.7hPa SE 4.0mph /  6.4km/h 5.0mph /  8km/h 95% 0.03in /  0.76mm 0.0 W/m2
07:21 59.2 °F /  15.1 °C 57.7 °F /  14.3 °C 29.76in /  1007.7hPa SE 2.0mph /  3.2km/h 4.0mph /  6.4km/h 95% 0.03in /  0.76mm 5.0 W/m2
07:27 59.2 °F /  15.1 °C 58.1 °F /  14.5 °C 29.76in /  1007.7hPa SE 0.9mph /  1.4km/h 3.0mph /  4.8km/h 96% 0.04in /  1.02mm 9.0 W/m2
07:33 59.0 °F /  15 °C 57.9 °F /  14.4 °C 29.76in /  1007.7hPa ENE 0.9mph /  1.4km/h 2.0mph /  3.2km/h 96% 0.04in /  1.02mm 14.0 W/m2
07:39 59.0 °F /  15 °C 57.9 °F /  14.4 °C 29.76in /  1007.7hPa Calm   3.0mph /  4.8km/h 96% 0.03in /  0.76mm 18.0 W/m2
07:45 59.2 °F /  15.1 °C 58.1 °F /  14.5 °C 29.75in /  1007.3hPa ESE 2.9mph /  4.7km/h 4.0mph /  6.4km/h 96% 0.02in /  0.51mm 23.0 W/m2
07:51 59.2 °F /  15.1 °C 58.1 °F /  14.5 °C 29.76in /  1007.7hPa SE 0.9mph /  1.4km/h 3.0mph /  4.8km/h 96% 0.02in /  0.51mm 28.0 W/m2
07:57 59.4 °F /  15.2 °C 58.3 °F /  14.6 °C 29.75in /  1007.3hPa Calm     96% 0.02in /  0.51mm 33.0 W/m2
08:03 59.5 °F /  15.3 °C 58.5 °F /  14.7 °C 29.75in /  1007.3hPa Calm   1.0mph /  1.6km/h 96% 0.01in /  0.25mm 39.0 W/m2
08:09 59.7 °F /  15.4 °C 58.6 °F /  14.8 °C 29.76in /  1007.7hPa East 0.9mph /  1.4km/h 3.0mph /  4.8km/h 96% 0.01in /  0.25mm 44.0 W/m2
08:15 60.1 °F /  15.6 °C 59.0 °F /  15 °C 29.75in /  1007.3hPa Calm   2.0mph /  3.2km/h 96% 0.02in /  0.51mm 51.0 W/m2
08:21 60.3 °F /  15.7 °C 59.2 °F /  15.1 °C 29.75in /  1007.3hPa Calm   3.0mph /  4.8km/h 96% 0.01in /  0.25mm 60.0 W/m2
08:27 60.4 °F /  15.8 °C 59.4 °F /  15.2 °C 29.75in /  1007.3hPa Calm   3.0mph /  4.8km/h 96% 0.01in /  0.25mm 67.0 W/m2
08:33 60.6 °F /  15.9 °C 59.5 °F /  15.3 °C 29.75in /  1007.3hPa Calm   2.0mph /  3.2km/h 96% 0.01in /  0.25mm 81.0 W/m2
08:40 61.0 °F /  16.1 °C 59.9 °F /  15.5 °C 29.75in /  1007.3hPa Calm   4.0mph /  6.4km/h 96% 0.01in /  0.25mm 123.0 W/m2
08:46 61.2 °F /  16.2 °C 60.3 °F /  15.7 °C 29.75in /  1007.3hPa Calm   1.0mph /  1.6km/h 97% 0.01in /  0.25mm 156.0 W/m2
08:52 61.3 °F /  16.3 °C 60.3 °F /  15.7 °C 29.76in /  1007.7hPa Calm   2.0mph /  3.2km/h 96% 0.01in /  0.25mm 160.0 W/m2
08:58 61.7 °F /  16.5 °C 60.8 °F /  16 °C 29.75in /  1007.3hPa Calm   4.0mph /  6.4km/h 97% 0.01in /  0.25mm 183.0 W/m2
09:04 62.2 °F /  16.8 °C 61.2 °F /  16.2 °C 29.75in /  1007.3hPa Calm   3.0mph /  4.8km/h 96% 0.01in /  0.25mm 176.0 W/m2
09:10 62.8 °F /  17.1 °C 61.9 °F /  16.6 °C 29.76in /  1007.7hPa Calm   3.0mph /  4.8km/h 97% 0.01in /  0.25mm 229.0 W/m2
09:22 63.3 °F /  17.4 °C 62.2 °F /  16.8 °C 29.76in /  1007.7hPa Calm   1.0mph /  1.6km/h 96% 0.00in /  0mm 206.0 W/m2
09:29 63.5 °F /  17.5 °C 61.7 °F /  16.5 °C 29.76in /  1007.7hPa NE 4.0mph /  6.4km/h 4.0mph /  6.4km/h 94% 0.00in /  0mm 236.0 W/m2
09:35 63.7 °F /  17.6 °C 61.9 °F /  16.6 °C 29.76in /  1007.7hPa NNE 2.0mph /  3.2km/h 5.0mph /  8km/h 94% 0.00in /  0mm 318.0 W/m2
09:41 64.0 °F /  17.8 °C 62.2 °F /  16.8 °C 29.76in /  1007.7hPa ENE 0.9mph /  1.4km/h 6.0mph /  9.7km/h 94% 0.00in /  0mm 339.0 W/m2
09:47 64.6 °F /  18.1 °C 62.8 °F /  17.1 °C 29.76in /  1007.7hPa Calm   3.0mph /  4.8km/h 94% 0.00in /  0mm 385.0 W/m2
09:51 64.9 °F /  18.3 °C 62.6 °F /  17 °C 29.76in /  1007.7hPa Calm   2.0mph /  3.2km/h 92% 0.00in /  0mm 427.0 W/m2
09:57 65.1 °F /  18.4 °C 61.9 °F /  16.6 °C 29.76in /  1007.7hPa Calm   2.0mph /  3.2km/h 89% 0.00in /  0mm 304.0 W/m2
10:10 66.2 °F /  19 °C 61.9 °F /  16.6 °C 29.76in /  1007.7hPa North 0.9mph /  1.4km/h 2.0mph /  3.2km/h 86% 0.00in /  0mm 434.0 W/m2
10:16 66.7 °F /  19.3 °C 60.8 °F /  16 °C 29.76in /  1007.7hPa North 0.9mph /  1.4km/h 4.0mph /  6.4km/h 81% 0.00in /  0mm 415.0 W/m2
10:22 67.3 °F /  19.6 °C 61.0 °F /  16.1 °C 29.76in /  1007.7hPa NNE 0.9mph /  1.4km/h 4.0mph /  6.4km/h 80% 0.00in /  0mm 422.0 W/m2
10:28 67.8 °F /  19.9 °C 61.3 °F /  16.3 °C 29.76in /  1007.7hPa North 2.0mph /  3.2km/h 3.0mph /  4.8km/h 80% 0.00in /  0mm 591.0 W/m2
10:34 68.5 °F /  20.3 °C 60.3 °F /  15.7 °C 29.76in /  1007.7hPa East 0.9mph /  1.4km/h 5.0mph /  8km/h 75% 0.00in /  0mm 751.0 W/m2
10:40 69.8 °F /  21 °C 61.9 °F /  16.6 °C 29.76in /  1007.7hPa Calm   7.0mph /  11.3km/h 76% 0.00in /  0mm 1208.0 W/m2
10:46 71.2 °F /  21.8 °C 63.3 °F /  17.4 °C 29.75in /  1007.3hPa East 4.0mph /  6.4km/h 9.0mph /  14.5km/h 76% 0.00in /  0mm 1118.0 W/m2
10:52 72.3 °F /  22.4 °C 62.4 °F /  16.9 °C 29.76in /  1007.7hPa ESE 8.1mph /  13km/h 8.1mph /  13km/h 71% 0.00in /  0mm 1155.0 W/m2
10:59 73.0 °F /  22.8 °C 61.9 °F /  16.6 °C 29.75in /  1007.3hPa NNE 6.9mph /  11.1km/h 7.0mph /  11.3km/h 68% 0.00in /  0mm 543.0 W/m2
11:05 73.0 °F /  22.8 °C 61.5 °F /  16.4 °C 29.75in /  1007.3hPa ENE 0.9mph /  1.4km/h 7.0mph /  11.3km/h 67% 0.00in /  0mm 499.0 W/m2
11:11 73.0 °F /  22.8 °C 61.9 °F /  16.6 °C 29.76in /  1007.7hPa NE 2.0mph /  3.2km/h 4.0mph /  6.4km/h 68% 0.00in /  0mm 587.0 W/m2
11:17 73.2 °F /  22.9 °C 61.5 °F /  16.4 °C 29.75in /  1007.3hPa Calm   3.0mph /  4.8km/h 67% 0.00in /  0mm 499.0 W/m2
11:23 73.8 °F /  23.2 °C 62.1 °F /  16.7 °C 29.75in /  1007.3hPa East 2.9mph /  4.7km/h 4.0mph /  6.4km/h 67% 0.00in /  0mm 388.0 W/m2
11:29 73.8 °F /  23.2 °C 60.4 °F /  15.8 °C 29.76in /  1007.7hPa East 6.9mph /  11.1km/h 9.0mph /  14.5km/h 63% 0.00in /  0mm 513.0 W/m2
11:35 73.6 °F /  23.1 °C 60.3 °F /  15.7 °C 29.75in /  1007.3hPa NE 4.9mph /  7.9km/h 8.0mph /  12.9km/h 63% 0.00in /  0mm 675.0 W/m2
11:41 73.6 °F /  23.1 °C 58.8 °F /  14.9 °C 29.75in /  1007.3hPa East 4.9mph /  7.9km/h 9.0mph /  14.5km/h 60% 0.00in /  0mm 589.0 W/m2
11:48 73.8 °F /  23.2 °C 59.5 °F /  15.3 °C 29.75in /  1007.3hPa NE 4.9mph /  7.9km/h 8.0mph /  12.9km/h 61% 0.00in /  0mm 640.0 W/m2
11:54 74.1 °F /  23.4 °C 59.4 °F /  15.2 °C 29.75in /  1007.3hPa North 2.0mph /  3.2km/h 7.0mph /  11.3km/h 60% 0.00in /  0mm 610.0 W/m2
12:00 74.5 °F /  23.6 °C 59.7 °F /  15.4 °C 29.75in /  1007.3hPa East 0.9mph /  1.4km/h 8.0mph /  12.9km/h 60% 0.00in /  0mm 649.0 W/m2
12:06 74.7 °F /  23.7 °C 58.8 °F /  14.9 °C 29.75in /  1007.3hPa NE 2.0mph /  3.2km/h 6.0mph /  9.7km/h 58% 0.00in /  0mm 563.0 W/m2
12:12 74.8 °F /  23.8 °C 59.5 °F /  15.3 °C 29.75in /  1007.3hPa ENE 2.9mph /  4.7km/h 4.0mph /  6.4km/h 59% 0.00in /  0mm 557.0 W/m2
12:18 75.2 °F /  24 °C 60.4 °F /  15.8 °C 29.75in /  1007.3hPa ESE 2.0mph /  3.2km/h 5.0mph /  8km/h 60% 0.00in /  0mm 534.0 W/m2
12:24 75.4 °F /  24.1 °C 60.4 °F /  15.8 °C 29.74in /  1007hPa ENE 0.9mph /  1.4km/h 5.0mph /  8km/h 60% 0.00in /  0mm 454.0 W/m2
12:30 75.2 °F /  24 °C 59.0 °F /  15 °C 29.73in /  1006.7hPa Calm   2.0mph /  3.2km/h 57% 0.00in /  0mm 466.0 W/m2
12:37 75.2 °F /  24 °C 59.9 °F /  15.5 °C 29.73in /  1006.7hPa Calm   2.0mph /  3.2km/h 59% 0.00in /  0mm 408.0 W/m2
12:43 75.4 °F /  24.1 °C 59.5 °F /  15.3 °C 29.73in /  1006.7hPa Calm   3.0mph /  4.8km/h 58% 0.00in /  0mm 436.0 W/m2
12:49 75.6 °F /  24.2 °C 60.3 °F /  15.7 °C 29.73in /  1006.7hPa NNE 0.9mph /  1.4km/h 6.0mph /  9.7km/h 59% 0.00in /  0mm 417.0 W/m2
12:55 75.9 °F /  24.4 °C 60.6 °F /  15.9 °C 29.72in /  1006.3hPa NNE 2.9mph /  4.7km/h 3.0mph /  4.8km/h 59% 0.00in /  0mm 751.0 W/m2
13:01 76.8 °F /  24.9 °C 59.9 °F /  15.5 °C 29.72in /  1006.3hPa NNE 2.0mph /  3.2km/h 6.0mph /  9.7km/h 56% 0.00in /  0mm 357.0 W/m2
13:07 77.2 °F /  25.1 °C 60.8 °F /  16 °C 29.72in /  1006.3hPa NNE 2.0mph /  3.2km/h 2.0mph /  3.2km/h 57% 0.00in /  0mm 360.0 W/m2
13:14 76.8 °F /  24.9 °C 60.4 °F /  15.8 °C 29.72in /  1006.3hPa NNW 2.9mph /  4.7km/h 6.0mph /  9.7km/h 57% 0.00in /  0mm 489.0 W/m2
13:20 77.0 °F /  25 °C 61.2 °F /  16.2 °C 29.72in /  1006.3hPa NNE 4.0mph /  6.4km/h 10.0mph /  16.1km/h 58% 0.00in /  0mm 468.0 W/m2
13:26 77.5 °F /  25.3 °C 60.6 °F /  15.9 °C 29.72in /  1006.3hPa NNW 6.0mph /  9.7km/h 6.0mph /  9.7km/h 56% 0.00in /  0mm 1299.0 W/m2
13:32 78.3 °F /  25.7 °C 61.7 °F /  16.5 °C 29.71in /  1006hPa NE 4.9mph /  7.9km/h 8.0mph /  12.9km/h 57% 0.00in /  0mm 427.0 W/m2
13:38 77.9 °F /  25.5 °C 61.9 °F /  16.6 °C 29.71in /  1006hPa North 0.9mph /  1.4km/h 2.0mph /  3.2km/h 58% 0.00in /  0mm 346.0 W/m2
13:44 77.5 °F /  25.3 °C 60.6 °F /  15.9 °C 29.70in /  1005.6hPa WNW 2.9mph /  4.7km/h 3.0mph /  4.8km/h 56% 0.00in /  0mm 329.0 W/m2
13:50 77.0 °F /  25 °C 60.6 °F /  15.9 °C 29.70in /  1005.6hPa West 6.0mph /  9.7km/h 6.0mph /  9.7km/h 57% 0.00in /  0mm 316.0 W/m2
13:56 76.8 °F /  24.9 °C 61.0 °F /  16.1 °C 29.70in /  1005.6hPa North 2.0mph /  3.2km/h 4.0mph /  6.4km/h 58% 0.00in /  0mm 1230.0 W/m2
14:03 77.7 °F /  25.4 °C 59.7 °F /  15.4 °C 29.69in /  1005.3hPa North 6.9mph /  11.1km/h 8.0mph /  12.9km/h 54% 0.00in /  0mm 329.0 W/m2
14:09 78.3 °F /  25.7 °C 59.7 °F /  15.4 °C 29.70in /  1005.6hPa WNW 2.0mph /  3.2km/h 2.0mph /  3.2km/h 53% 0.00in /  0mm 1206.0 W/m2
14:15 79.5 °F /  26.4 °C 60.8 °F /  16 °C 29.69in /  1005.3hPa WNW 2.0mph /  3.2km/h 5.0mph /  8km/h 53% 0.00in /  0mm 1257.0 W/m2
14:21 80.4 °F /  26.9 °C 61.2 °F /  16.2 °C 29.69in /  1005.3hPa West 6.9mph /  11.1km/h 10.0mph /  16.1km/h 52% 0.00in /  0mm 1007.0 W/m2
14:27 80.8 °F /  27.1 °C 61.0 °F /  16.1 °C 29.69in /  1005.3hPa NNW 8.9mph /  14.3km/h 9.0mph /  14.5km/h 51% 0.00in /  0mm 758.0 W/m2
14:33 80.2 °F /  26.8 °C 59.4 °F /  15.2 °C 29.69in /  1005.3hPa NNE 4.0mph /  6.4km/h 10.0mph /  16.1km/h 49% 0.00in /  0mm 599.0 W/m2
14:39 79.7 °F /  26.5 °C 61.0 °F /  16.1 °C 29.69in /  1005.3hPa NNW 0.9mph /  1.4km/h 2.0mph /  3.2km/h 53% 0.00in /  0mm 352.0 W/m2
14:45 79.2 °F /  26.2 °C 60.1 °F /  15.6 °C 29.68in /  1005hPa Calm   4.0mph /  6.4km/h 52% 0.00in /  0mm 313.0 W/m2
14:51 78.6 °F /  25.9 °C 60.6 °F /  15.9 °C 29.67in /  1004.6hPa NNW 2.0mph /  3.2km/h 4.0mph /  6.4km/h 54% 0.00in /  0mm 422.0 W/m2
14:58 79.5 °F /  26.4 °C 60.8 °F /  16 °C 29.66in /  1004.3hPa Calm   8.0mph /  12.9km/h 53% 0.00in /  0mm 1123.0 W/m2
15:04 80.4 °F /  26.9 °C 61.2 °F /  16.2 °C 29.66in /  1004.3hPa North 2.9mph /  4.7km/h 8.0mph /  12.9km/h 52% 0.00in /  0mm 1060.0 W/m2
15:10 80.8 °F /  27.1 °C 60.4 °F /  15.8 °C 29.67in /  1004.6hPa NW 2.9mph /  4.7km/h 9.0mph /  14.5km/h 50% 0.00in /  0mm 1086.0 W/m2
15:16 80.4 °F /  26.9 °C 60.6 °F /  15.9 °C 29.67in /  1004.6hPa WNW 6.9mph /  11.1km/h 12.0mph /  19.3km/h 51% 0.00in /  0mm 264.0 W/m2
15:22 79.5 °F /  26.4 °C 61.3 °F /  16.3 °C 29.66in /  1004.3hPa West 4.9mph /  7.9km/h 7.0mph /  11.3km/h 54% 0.00in /  0mm 1014.0 W/m2
15:28 79.9 °F /  26.6 °C 57.9 °F /  14.4 °C 29.66in /  1004.3hPa West 2.0mph /  3.2km/h 10.0mph /  16.1km/h 47% 0.00in /  0mm 304.0 W/m2
15:34 79.0 °F /  26.1 °C 58.8 °F /  14.9 °C 29.66in /  1004.3hPa WSW 4.9mph /  7.9km/h 7.0mph /  11.3km/h 50% 0.00in /  0mm 789.0 W/m2
15:40 79.3 °F /  26.3 °C 59.7 °F /  15.4 °C 29.65in /  1003.9hPa Calm   6.0mph /  9.7km/h 51% 0.00in /  0mm 997.0 W/m2
15:47 80.4 °F /  26.9 °C 59.5 °F /  15.3 °C 29.65in /  1003.9hPa NW 2.0mph /  3.2km/h 5.0mph /  8km/h 49% 0.00in /  0mm 1086.0 W/m2
15:53 80.8 °F /  27.1 °C 59.2 °F /  15.1 °C 29.65in /  1003.9hPa WNW 2.0mph /  3.2km/h 4.0mph /  6.4km/h 48% 0.00in /  0mm 1009.0 W/m2
15:59 80.4 °F /  26.9 °C 59.0 °F /  15 °C 29.65in /  1003.9hPa WSW 2.9mph /  4.7km/h 6.0mph /  9.7km/h 48% 0.00in /  0mm 352.0 W/m2
16:11 76.8 °F /  24.9 °C 61.9 °F /  16.6 °C 29.65in /  1003.9hPa East 6.9mph /  11.1km/h 13.0mph /  20.9km/h 60% 0.00in /  0mm 171.0 W/m2
16:17 74.8 °F /  23.8 °C 62.2 °F /  16.8 °C 29.65in /  1003.9hPa Calm   15.0mph /  24.1km/h 65% 0.00in /  0mm 151.0 W/m2
16:23 73.6 °F /  23.1 °C 61.9 °F /  16.6 °C 29.64in /  1003.6hPa SSE 6.9mph /  11.1km/h 8.0mph /  12.9km/h 67% 0.00in /  0mm 91.0 W/m2
16:29 72.5 °F /  22.5 °C 63.7 °F /  17.6 °C 29.64in /  1003.6hPa SSE 6.9mph /  11.1km/h 9.0mph /  14.5km/h 74% 0.00in /  0mm 113.0 W/m2
16:31 72.0 °F /  22.2 °C 63.7 °F /  17.6 °C 29.64in /  1003.6hPa SE 4.0mph /  6.4km/h 10.0mph /  16.1km/h 75% 0.00in /  0mm 100.0 W/m2
16:38 70.9 °F /  21.6 °C 63.3 °F /  17.4 °C 29.64in /  1003.6hPa East 0.9mph /  1.4km/h 6.0mph /  9.7km/h 77% 0.00in /  0mm 158.0 W/m2
16:44 70.3 °F /  21.3 °C 62.4 °F /  16.9 °C 29.64in /  1003.6hPa SSE 0.9mph /  1.4km/h 6.0mph /  9.7km/h 76% 0.00in /  0mm 155.0 W/m2
16:50 70.3 °F /  21.3 °C 62.1 °F /  16.7 °C 29.64in /  1003.6hPa East 2.0mph /  3.2km/h 4.0mph /  6.4km/h 75% 0.00in /  0mm 116.0 W/m2
16:56 70.5 °F /  21.4 °C 63.0 °F /  17.2 °C 29.64in /  1003.6hPa ENE 2.9mph /  4.7km/h 4.0mph /  6.4km/h 77% 0.00in /  0mm 162.0 W/m2
17:02 71.1 °F /  21.7 °C 62.8 °F /  17.1 °C 29.64in /  1003.6hPa NE 0.9mph /  1.4km/h 6.0mph /  9.7km/h 75% 0.00in /  0mm 118.0 W/m2
17:08 71.2 °F /  21.8 °C 62.6 °F /  17 °C 29.64in /  1003.6hPa ESE 2.9mph /  4.7km/h 4.0mph /  6.4km/h 74% 0.00in /  0mm 72.0 W/m2
17:14 71.2 °F /  21.8 °C 63.0 °F /  17.2 °C 29.65in /  1003.9hPa SSE 4.0mph /  6.4km/h 5.0mph /  8km/h 75% 0.00in /  0mm 19.0 W/m2
17:21 70.9 °F /  21.6 °C 63.3 °F /  17.4 °C 29.67in /  1004.6hPa WSW 8.9mph /  14.3km/h 9.0mph /  14.5km/h 77% 0.00in /  0mm 7.0 W/m2
17:27 67.8 °F /  19.9 °C 60.3 °F /  15.7 °C 29.68in /  1005hPa SW 14.1mph /  22.7km/h 20.0mph /  32.2km/h 77% 0.09in /  2.29mm 9.0 W/m2
17:33 64.6 °F /  18.1 °C 58.3 °F /  14.6 °C 29.68in /  1005hPa WSW 2.0mph /  3.2km/h 8.0mph /  12.9km/h 80% 0.27in /  6.86mm 12.0 W/m2
17:39 63.0 °F /  17.2 °C 58.5 °F /  14.7 °C 29.67in /  1004.6hPa NE 2.9mph /  4.7km/h 9.0mph /  14.5km/h 85% 0.46in /  11.68mm 21.0 W/m2
17:45 61.9 °F /  16.6 °C 57.9 °F /  14.4 °C 29.67in /  1004.6hPa Calm   3.0mph /  4.8km/h 87% 0.50in /  12.7mm 18.0 W/m2
17:51 61.3 °F /  16.3 °C 58.1 °F /  14.5 °C 29.68in /  1005hPa Calm     89% 0.53in /  13.46mm 16.0 W/m2
17:57 61.2 °F /  16.2 °C 58.5 °F /  14.7 °C 29.69in /  1005.3hPa Calm     91% 0.54in /  13.72mm 11.0 W/m2
18:04 61.2 °F /  16.2 °C 58.8 °F /  14.9 °C 29.70in /  1005.6hPa ESE 4.0mph /  6.4km/h 4.0mph /  6.4km/h 92% 0.54in /  13.72mm 7.0 W/m2
18:10 61.2 °F /  16.2 °C 58.8 °F /  14.9 °C 29.70in /  1005.6hPa Calm   2.0mph /  3.2km/h 92% 0.54in /  13.72mm 5.0 W/m2
18:16 61.0 °F /  16.1 °C 58.6 °F /  14.8 °C 29.70in /  1005.6hPa Calm   2.0mph /  3.2km/h 92% 0.54in /  13.72mm 0.0 W/m2
18:22 61.0 °F /  16.1 °C 59.0 °F /  15 °C 29.71in /  1006hPa Calm     93% 0.51in /  12.95mm 0.0 W/m2
18:28 61.0 °F /  16.1 °C 59.0 °F /  15 °C 29.71in /  1006hPa Calm     93% 0.34in /  8.64mm 0.0 W/m2
18:34 61.0 °F /  16.1 °C 59.0 °F /  15 °C 29.72in /  1006.3hPa Calm   1.0mph /  1.6km/h 93% 0.20in /  5.08mm 0.0 W/m2
18:40 61.2 °F /  16.2 °C 59.4 °F /  15.2 °C 29.72in /  1006.3hPa Calm     94% 0.06in /  1.52mm 0.0 W/m2
18:46 61.2 °F /  16.2 °C 59.4 °F /  15.2 °C 29.72in /  1006.3hPa Calm   2.0mph /  3.2km/h 94% 0.05in /  1.27mm 0.0 W/m2
18:52 61.2 °F /  16.2 °C 59.4 °F /  15.2 °C 29.72in /  1006.3hPa NNW 0.9mph /  1.4km/h 3.0mph /  4.8km/h 94% 0.02in /  0.51mm 0.0 W/m2
18:59 61.2 °F /  16.2 °C 59.4 °F /  15.2 °C 29.72in /  1006.3hPa Calm   1.0mph /  1.6km/h 94% 0.02in /  0.51mm 0.0 W/m2
19:05 61.2 °F /  16.2 °C 59.4 °F /  15.2 °C 29.73in /  1006.7hPa Calm     94% 0.02in /  0.51mm 0.0 W/m2
19:11 61.0 °F /  16.1 °C 59.0 °F /  15 °C 29.73in /  1006.7hPa NNW 0.9mph /  1.4km/h 2.0mph /  3.2km/h 93% 0.01in /  0.25mm 0.0 W/m2
19:17 60.8 °F /  16 °C 58.8 °F /  14.9 °C 29.72in /  1006.3hPa Calm     93% 0.01in /  0.25mm 0.0 W/m2
19:23 60.6 °F /  15.9 °C 58.6 °F /  14.8 °C 29.73in /  1006.7hPa Calm     93% 0.02in /  0.51mm 0.0 W/m2
19:29 60.6 °F /  15.9 °C 58.8 °F /  14.9 °C 29.73in /  1006.7hPa Calm     94% 0.02in /  0.51mm 0.0 W/m2
19:35 60.8 °F /  16 °C 59.0 °F /  15 °C 29.73in /  1006.7hPa Calm     94% 0.02in /  0.51mm 0.0 W/m2
19:41 61.0 °F /  16.1 °C 59.2 °F /  15.1 °C 29.74in /  1007hPa Calm     94% 0.02in /  0.51mm 0.0 W/m2
19:47 60.8 °F /  16 °C 59.0 °F /  15 °C 29.74in /  1007hPa Calm     94% 0.02in /  0.51mm 0.0 W/m2
19:54 60.8 °F /  16 °C 59.0 °F /  15 °C 29.74in /  1007hPa Calm     94% 0.02in /  0.51mm 0.0 W/m2
20:00 60.8 °F /  16 °C 59.0 °F /  15 °C 29.74in /  1007hPa Calm   1.0mph /  1.6km/h 94% 0.02in /  0.51mm 0.0 W/m2
20:06 61.0 °F /  16.1 °C 59.2 °F /  15.1 °C 29.74in /  1007hPa Calm     94% 0.03in /  0.76mm 0.0 W/m2
20:12 61.0 °F /  16.1 °C 59.2 °F /  15.1 °C 29.74in /  1007hPa Calm     94% 0.05in /  1.27mm 0.0 W/m2
20:18 61.2 °F /  16.2 °C 59.4 °F /  15.2 °C 29.74in /  1007hPa Calm     94% 0.06in /  1.52mm 0.0 W/m2
20:24 61.2 °F /  16.2 °C 59.4 °F /  15.2 °C 29.75in /  1007.3hPa Calm     94% 0.05in /  1.27mm 0.0 W/m2
20:30 61.2 °F /  16.2 °C 59.4 °F /  15.2 °C 29.74in /  1007hPa NNE 0.9mph /  1.4km/h 3.0mph /  4.8km/h 94% 0.05in /  1.27mm 0.0 W/m2
20:36 61.2 °F /  16.2 °C 59.4 °F /  15.2 °C 29.75in /  1007.3hPa Calm   2.0mph /  3.2km/h 94% 0.04in /  1.02mm 0.0 W/m2
20:43 61.0 °F /  16.1 °C 59.2 °F /  15.1 °C 29.75in /  1007.3hPa Calm   1.0mph /  1.6km/h 94% 0.05in /  1.27mm 0.0 W/m2
20:49 61.2 °F /  16.2 °C 59.4 °F /  15.2 °C 29.75in /  1007.3hPa Calm     94% 0.05in /  1.27mm 0.0 W/m2
20:55 61.0 °F /  16.1 °C 59.2 °F /  15.1 °C 29.76in /  1007.7hPa Calm     94% 0.06in /  1.52mm 0.0 W/m2
21:01 61.0 °F /  16.1 °C 59.2 °F /  15.1 °C 29.77in /  1008hPa Calm     94% 0.06in /  1.52mm 0.0 W/m2
21:07 61.0 °F /  16.1 °C 59.5 °F /  15.3 °C 29.77in /  1008hPa Calm     95% 0.05in /  1.27mm 0.0 W/m2
21:13 60.8 °F /  16 °C 59.0 °F /  15 °C 29.77in /  1008hPa Calm   1.0mph /  1.6km/h 94% 0.04in /  1.02mm 0.0 W/m2
21:19 60.8 °F /  16 °C 59.4 °F /  15.2 °C 29.77in /  1008hPa NW 0.9mph /  1.4km/h 1.0mph /  1.6km/h 95% 0.04in /  1.02mm 0.0 W/m2
21:26 61.0 °F /  16.1 °C 59.5 °F /  15.3 °C 29.77in /  1008hPa Calm   1.0mph /  1.6km/h 95% 0.04in /  1.02mm 0.0 W/m2
21:32 61.2 °F /  16.2 °C 59.7 °F /  15.4 °C 29.77in /  1008hPa Calm     95% 0.05in /  1.27mm 0.0 W/m2
21:38 61.2 °F /  16.2 °C 59.7 °F /  15.4 °C 29.77in /  1008hPa Calm   1.0mph /  1.6km/h 95% 0.04in /  1.02mm 0.0 W/m2
21:44 61.2 °F /  16.2 °C 59.7 °F /  15.4 °C 29.78in /  1008.4hPa Calm     95% 0.04in /  1.02mm 0.0 W/m2
21:50 61.2 °F /  16.2 °C 59.7 °F /  15.4 °C 29.77in /  1008hPa Calm   1.0mph /  1.6km/h 95% 0.03in /  0.76mm 0.0 W/m2
21:56 61.2 °F /  16.2 °C 59.7 °F /  15.4 °C 29.77in /  1008hPa Calm     95% 0.02in /  0.51mm 0.0 W/m2
22:02 61.2 °F /  16.2 °C 59.7 °F /  15.4 °C 29.77in /  1008hPa NNW 0.9mph /  1.4km/h 3.0mph /  4.8km/h 95% 0.02in /  0.51mm 0.0 W/m2
22:09 61.0 °F /  16.1 °C 59.5 °F /  15.3 °C 29.77in /  1008hPa Calm   2.0mph /  3.2km/h 95% 0.01in /  0.25mm 0.0 W/m2
22:15 61.0 °F /  16.1 °C 59.5 °F /  15.3 °C 29.77in /  1008hPa Calm   1.0mph /  1.6km/h 95% 0.01in /  0.25mm 0.0 W/m2
22:21 61.0 °F /  16.1 °C 59.5 °F /  15.3 °C 29.77in /  1008hPa Calm     95% 0.01in /  0.25mm 0.0 W/m2
22:27 61.0 °F /  16.1 °C 59.5 °F /  15.3 °C 29.78in /  1008.4hPa Calm     95% 0.00in /  0mm 0.0 W/m2
22:33 61.0 °F /  16.1 °C 59.5 °F /  15.3 °C 29.77in /  1008hPa Calm     95% 0.00in /  0mm 0.0 W/m2
22:39 60.8 °F /  16 °C 59.4 °F /  15.2 °C 29.78in /  1008.4hPa Calm     95% 0.00in /  0mm 0.0 W/m2
22:45 60.8 °F /  16 °C 59.4 °F /  15.2 °C 29.78in /  1008.4hPa Calm     95% 0.00in /  0mm 0.0 W/m2
22:51 61.0 °F /  16.1 °C 59.5 °F /  15.3 °C 29.78in /  1008.4hPa Calm     95% 0.00in /  0mm 0.0 W/m2
22:58 61.0 °F /  16.1 °C 59.5 °F /  15.3 °C 29.78in /  1008.4hPa NNW 0.9mph /  1.4km/h 2.0mph /  3.2km/h 95% 0.00in /  0mm 0.0 W/m2
23:04 61.2 °F /  16.2 °C 59.7 °F /  15.4 °C 29.78in /  1008.4hPa NNW 2.0mph /  3.2km/h 3.0mph /  4.8km/h 95% 0.00in /  0mm 0.0 W/m2
23:10 61.0 °F /  16.1 °C 59.5 °F /  15.3 °C 29.78in /  1008.4hPa Calm   3.0mph /  4.8km/h 95% 0.00in /  0mm 0.0 W/m2
23:16 61.0 °F /  16.1 °C 59.5 °F /  15.3 °C 29.78in /  1008.4hPa North 0.9mph /  1.4km/h 3.0mph /  4.8km/h 95% 0.00in /  0mm 0.0 W/m2
23:22 61.0 °F /  16.1 °C 59.5 °F /  15.3 °C 29.78in /  1008.4hPa North 2.0mph /  3.2km/h 3.0mph /  4.8km/h 95% 0.00in /  0mm 0.0 W/m2
23:28 60.6 °F /  15.9 °C 59.2 °F /  15.1 °C 29.78in /  1008.4hPa NNW 2.0mph /  3.2km/h 2.0mph /  3.2km/h 95% 0.00in /  0mm 0.0 W/m2
23:34 60.4 °F /  15.8 °C 58.6 °F /  14.8 °C 29.78in /  1008.4hPa Calm   3.0mph /  4.8km/h 94% 0.00in /  0mm 0.0 W/m2
23:40 60.4 °F /  15.8 °C 58.6 °F /  14.8 °C 29.78in /  1008.4hPa North 2.0mph /  3.2km/h 4.0mph /  6.4km/h 94% 0.00in /  0mm 0.0 W/m2
23:46 60.3 °F /  15.7 °C 58.5 °F /  14.7 °C 29.78in /  1008.4hPa NNE 0.9mph /  1.4km/h 4.0mph /  6.4km/h 94% 0.00in /  0mm 0.0 W/m2
23:52 60.3 °F /  15.7 °C 58.8 °F /  14.9 °C 29.78in /  1008.4hPa NW 2.0mph /  3.2km/h 5.0mph /  8km/h 95% 0.00in /  0mm 0.0 W/m2
23:59 60.3 °F /  15.7 °C 58.8 °F /  14.9 °C 29.78in /  1008.4hPa Calm   2.0mph /  3.2km/h 95% 0.00in /  0mm 0.0 W/m2
Olympia, Windhoek, Namibia
Compliments of Weather Underground - 3 mb